Time;durP1;ratioP1;P1;durP2;ratioP2;P2;SDS_P1;SDS_P2;PMS_P1;PMS_P2;Temp;Humidity;BMP_temperature;BMP_pressure;BME280_temperature;BME280_humidity;BME280_pressure;Samples;Min_cycle;Max_cycle;Signal;HPM_P1;HPM_P2
2022/10/23 00:02:18;;;;;;;1.75;1.40;;;12.00;99.90;;;;;;5212785;28;20021;-63
2022/10/23 00:05:14;;;;;;;1.38;1.27;;;11.80;99.90;;;;;;5183142;28;20051;-63
2022/10/23 00:08:07;;;;;;;1.60;1.50;;;11.60;99.90;;;;;;5204912;28;20067;-64
2022/10/23 00:11:11;;;;;;;1.55;1.27;;;11.50;99.90;;;;;;5197711;28;20047;-64
2022/10/23 00:14:07;;;;;;;1.77;1.13;;;11.40;99.90;;;;;;5189688;28;20025;-63
2022/10/23 00:17:01;;;;;;;2.05;1.30;;;11.30;99.90;;;;;;5197483;28;20025;-64
2022/10/23 00:19:52;;;;;;;1.20;1.10;;;11.30;99.90;;;;;;5185071;28;20033;-63
2022/10/23 00:22:44;;;;;;;1.40;1.30;;;11.30;99.90;;;;;;5212247;28;20508;-63
2022/10/23 00:25:37;;;;;;;1.25;1.13;;;11.30;99.90;;;;;;5184767;28;20031;-62
2022/10/23 00:28:34;;;;;;;1.55;1.40;;;11.30;99.90;;;;;;5199529;28;20051;-62
2022/10/23 00:31:28;;;;;;;1.52;1.30;;;11.10;99.90;;;;;;5184556;28;20237;-65
2022/10/23 00:34:22;;;;;;;4.07;1.50;;;11.00;99.90;;;;;;5184859;28;20029;-64
2022/10/23 00:37:16;;;;;;;1.87;1.77;;;11.00;99.90;;;;;;5189480;28;20041;-62
2022/10/23 00:40:14;;;;;;;1.70;1.60;;;10.80;99.90;;;;;;5181275;28;20037;-63
2022/10/23 00:43:06;;;;;;;1.50;1.40;;;10.80;99.90;;;;;;5185965;28;20037;-64
2022/10/23 00:46:00;;;;;;;1.70;1.30;;;10.80;99.90;;;;;;5198953;28;20025;-63
2022/10/23 00:48:55;;;;;;;1.58;1.48;;;10.70;99.90;;;;;;5203040;28;20029;-63
2022/10/23 00:52:03;;;;;;;1.60;1.50;;;10.90;99.90;;;;;;5197033;28;20383;-63
2022/10/23 00:54:58;;;;;;;1.60;1.50;;;10.80;99.90;;;;;;5191695;28;20029;-62
2022/10/23 00:57:53;;;;;;;2.15;1.55;;;10.70;99.90;;;;;;5219715;28;20025;-63
2022/10/23 01:03:31;;;;;;;2.05;1.60;;;10.60;99.90;;;;;;5201227;28;19925;-75
2022/10/23 01:06:25;;;;;;;1.90;1.70;;;10.70;99.90;;;;;;5178370;28;20050;-76
2022/10/23 01:09:27;;;;;;;2.23;1.73;;;10.40;99.90;;;;;;5204930;28;20039;-75
2022/10/23 01:12:22;;;;;;;1.90;1.48;;;10.30;99.90;;;;;;5189524;28;20056;-75
2022/10/23 01:15:28;;;;;;;1.63;1.52;;;10.20;99.90;;;;;;5188616;28;20038;-76
2022/10/23 01:18:45;;;;;;;1.90;1.67;;;10.20;99.90;;;;;;5203721;28;20352;-76
2022/10/23 01:21:55;;;;;;;1.77;1.67;;;10.10;99.90;;;;;;5168469;28;20029;-75
2022/10/23 01:25:21;;;;;;;1.60;1.50;;;10.00;99.90;;;;;;5192140;28;20026;-74
2022/10/23 01:28:20;;;;;;;3.58;1.80;;;10.30;99.90;;;;;;5194225;28;20028;-77
2022/10/23 01:31:18;;;;;;;2.35;1.70;;;10.30;99.90;;;;;;5222959;28;20027;-76
2022/10/23 01:34:14;;;;;;;1.63;1.52;;;10.30;99.90;;;;;;5206062;28;20340;-74
2022/10/23 01:37:13;;;;;;;1.88;1.77;;;10.20;99.90;;;;;;5200034;28;20025;-74
2022/10/23 01:40:11;;;;;;;1.73;1.58;;;10.20;99.90;;;;;;5200974;28;20021;-75
2022/10/23 01:43:11;;;;;;;2.08;1.70;;;10.30;99.90;;;;;;5202966;28;20029;-75
2022/10/23 01:46:07;;;;;;;2.05;1.40;;;10.10;99.90;;;;;;5202443;28;20042;-75
2022/10/23 01:49:00;;;;;;;2.03;1.63;;;10.20;99.90;;;;;;5214212;28;20031;-74
2022/10/23 01:51:58;;;;;;;1.65;1.50;;;10.10;99.90;;;;;;5210122;28;20045;-75
2022/10/23 01:54:52;;;;;;;1.90;1.80;;;10.10;99.90;;;;;;5200432;28;20033;-73
2022/10/23 01:57:51;;;;;;;2.78;1.50;;;10.20;99.90;;;;;;5206871;28;20033;-76
2022/10/23 02:00:48;;;;;;;1.75;1.65;;;10.20;99.90;;;;;;5207207;28;20381;-76
2022/10/23 02:03:41;;;;;;;2.33;2.13;;;10.20;99.90;;;;;;5181945;28;20356;-74
2022/10/23 02:06:32;;;;;;;1.92;1.42;;;10.30;99.90;;;;;;5174006;28;20367;-76
2022/10/23 02:09:23;;;;;;;2.05;1.85;;;10.40;99.90;;;;;;5203352;28;20025;-76
2022/10/23 02:12:33;;;;;;;1.98;1.58;;;10.30;99.90;;;;;;5202103;28;20029;-77
2022/10/23 02:15:42;;;;;;;1.50;1.40;;;10.20;99.90;;;;;;5174151;28;20477;-77
2022/10/23 02:18:54;;;;;;;3.80;1.42;;;10.10;99.90;;;;;;5155600;28;20022;-76
2022/10/23 02:21:54;;;;;;;1.27;1.17;;;10.10;99.90;;;;;;5184912;28;20481;-76
2022/10/23 02:25:22;;;;;;;5.03;1.55;;;10.40;99.90;;;;;;5202214;28;20043;-77
2022/10/23 02:28:22;;;;;;;1.70;1.60;;;10.30;99.90;;;;;;5180257;28;20427;-76
2022/10/23 02:31:18;;;;;;;1.60;1.50;;;10.10;99.90;;;;;;5195674;28;20021;-76
2022/10/23 02:34:11;;;;;;;1.70;1.50;;;10.60;99.90;;;;;;5202358;28;20043;-76
2022/10/23 02:37:03;;;;;;;1.48;1.35;;;10.60;99.90;;;;;;5189736;28;20472;-76
2022/10/23 02:39:57;;;;;;;2.22;1.63;;;10.40;99.90;;;;;;5205661;28;20029;-76
2022/10/23 02:43:02;;;;;;;1.63;1.30;;;10.20;99.90;;;;;;5191999;28;20021;-76
2022/10/23 02:46:08;;;;;;;2.60;1.55;;;10.10;99.90;;;;;;5185178;28;20048;-76
2022/10/23 02:49:21;;;;;;;2.15;1.80;;;10.00;99.90;;;;;;5191857;28;20037;-76
2022/10/23 02:52:30;;;;;;;2.30;1.40;;;9.90;99.90;;;;;;5206164;28;20041;-76
2022/10/23 02:55:55;;;;;;;1.60;1.50;;;9.80;99.90;;;;;;5191321;28;20413;-76
2022/10/23 02:59:08;;;;;;;1.60;1.48;;;9.70;99.90;;;;;;5196656;28;20033;-76
2022/10/23 03:02:10;;;;;;;1.55;1.30;;;9.70;99.90;;;;;;5202280;28;20034;-77
2022/10/23 03:05:06;;;;;;;1.20;1.10;;;9.70;99.90;;;;;;5179819;28;20103;-77
2022/10/23 03:08:02;;;;;;;1.80;1.30;;;9.60;99.90;;;;;;5176093;28;20034;-76
2022/10/23 03:10:54;;;;;;;1.50;1.40;;;9.40;99.90;;;;;;5168227;28;20037;-76
2022/10/23 03:13:48;;;;;;;1.35;1.13;;;9.50;99.90;;;;;;5178009;28;20036;-76
2022/10/23 03:16:42;;;;;;;1.97;1.67;;;9.60;99.90;;;;;;5188890;28;20037;-76
2022/10/23 03:19:33;;;;;;;2.60;2.40;;;9.80;99.90;;;;;;5190864;28;20013;-76
2022/10/23 03:22:27;;;;;;;2.40;1.60;;;10.00;99.90;;;;;;5204902;28;20052;-76
2022/10/23 03:25:21;;;;;;;2.10;1.65;;;10.00;99.90;;;;;;5194115;28;20051;-77
2022/10/23 03:28:12;;;;;;;3.38;1.73;;;9.70;99.90;;;;;;5209066;28;20035;-77
2022/10/23 03:31:04;;;;;;;2.60;1.92;;;9.60;99.90;;;;;;5186143;28;20022;-76
2022/10/23 03:33:56;;;;;;;1.80;1.67;;;9.50;99.90;;;;;;5205612;28;20043;-76
2022/10/23 03:36:47;;;;;;;1.58;1.35;;;9.30;99.90;;;;;;5190209;28;20104;-76
2022/10/23 03:39:41;;;;;;;3.83;1.95;;;9.20;99.90;;;;;;5173847;28;20334;-76
2022/10/23 03:42:36;;;;;;;1.70;1.60;;;9.00;99.90;;;;;;5194466;28;20018;-77
2022/10/23 03:45:29;;;;;;;2.30;1.90;;;8.90;99.90;;;;;;5198164;28;20033;-77
2022/10/23 03:48:22;;;;;;;1.38;1.20;;;8.70;99.90;;;;;;5190536;28;20033;-78
2022/10/23 03:51:20;;;;;;;2.13;1.90;;;8.70;99.90;;;;;;5203781;28;20021;-76
2022/10/23 03:54:11;;;;;;;3.30;1.70;;;8.60;99.90;;;;;;5202926;28;20017;-76
2022/10/23 03:57:03;;;;;;;1.73;1.45;;;8.60;99.90;;;;;;5203915;28;20229;-77
2022/10/23 03:59:54;;;;;;;1.77;1.65;;;8.50;99.90;;;;;;5203477;28;20044;-76
2022/10/23 04:02:48;;;;;;;2.00;1.80;;;8.50;99.90;;;;;;5179602;28;20049;-76
2022/10/23 04:05:41;;;;;;;2.90;2.20;;;8.50;99.90;;;;;;5174960;28;20065;-75
2022/10/23 04:08:33;;;;;;;1.90;1.70;;;8.40;99.90;;;;;;5197733;28;20040;-75
2022/10/23 04:11:25;;;;;;;1.60;1.50;;;8.40;99.90;;;;;;5203974;28;20048;-75
2022/10/23 04:14:16;;;;;;;2.28;1.88;;;8.50;99.90;;;;;;5197835;28;20523;-75
2022/10/23 04:17:08;;;;;;;2.95;2.22;;;8.50;99.90;;;;;;5199061;28;20230;-75
2022/10/23 04:20:01;;;;;;;2.63;1.58;;;8.60;99.90;;;;;;5191476;28;20040;-75
2022/10/23 04:22:53;;;;;;;1.98;1.80;;;8.50;99.90;;;;;;5203336;28;20036;-75
2022/10/23 04:25:45;;;;;;;2.42;2.03;;;8.40;99.90;;;;;;5202305;28;20036;-76
2022/10/23 04:28:36;;;;;;;2.35;1.98;;;8.50;99.90;;;;;;5200620;28;20148;-77
2022/10/23 04:31:27;;;;;;;2.55;1.80;;;8.50;99.90;;;;;;5202946;28;20327;-77
2022/10/23 04:34:21;;;;;;;2.33;1.90;;;8.50;99.90;;;;;;5201205;28;20041;-77
2022/10/23 04:37:13;;;;;;;3.35;2.10;;;8.50;99.90;;;;;;5183725;28;20036;-77
2022/10/23 04:40:05;;;;;;;2.78;1.85;;;8.30;99.90;;;;;;5170373;28;20026;-77
2022/10/23 04:42:56;;;;;;;2.03;1.83;;;8.20;99.90;;;;;;5190299;28;20035;-76
2022/10/23 04:45:50;;;;;;;3.55;1.92;;;8.10;99.90;;;;;;5189727;28;20029;-75
2022/10/23 04:48:44;;;;;;;2.83;1.80;;;8.00;99.90;;;;;;5190705;28;20458;-77
2022/10/23 04:51:37;;;;;;;2.78;2.45;;;8.20;99.90;;;;;;5194740;28;20517;-77
2022/10/23 04:54:28;;;;;;;3.63;2.80;;;8.10;99.90;;;;;;5195395;28;20021;-76
2022/10/23 04:57:25;;;;;;;6.78;4.15;;;8.00;99.90;;;;;;5204682;28;20035;-76
2022/10/23 05:00:19;;;;;;;5.03;3.28;;;7.80;99.90;;;;;;5193498;28;20021;-77
2022/10/23 05:03:13;;;;;;;4.55;3.38;;;7.70;99.90;;;;;;5198084;28;20048;-77
2022/10/23 05:06:05;;;;;;;3.30;2.85;;;7.70;99.90;;;;;;5197745;28;20440;-77
2022/10/23 05:08:57;;;;;;;5.20;2.97;;;7.60;99.90;;;;;;5210971;28;20025;-75
2022/10/23 05:11:51;;;;;;;4.57;3.50;;;7.70;99.90;;;;;;5213031;28;20021;-75
2022/10/23 05:14:45;;;;;;;12.98;10.18;;;7.70;99.90;;;;;;5206403;28;20035;-75
2022/10/23 05:17:40;;;;;;;25.45;9.20;;;7.70;99.90;;;;;;5198788;28;20021;-75
2022/10/23 05:20:34;;;;;;;33.03;9.38;;;7.70;99.90;;;;;;5213524;28;20036;-76
2022/10/23 05:23:27;;;;;;;41.50;10.50;;;7.60;99.90;;;;;;5208172;28;20360;-75
2022/10/23 05:26:21;;;;;;;7.88;4.70;;;7.50;99.90;;;;;;5208355;28;20483;-76
2022/10/23 05:29:12;;;;;;;5.60;3.97;;;7.50;99.90;;;;;;5197473;28;20031;-76
2022/10/23 05:32:07;;;;;;;5.65;3.85;;;7.50;99.90;;;;;;5178617;28;20247;-77
2022/10/23 05:35:10;;;;;;;5.03;3.63;;;7.50;99.90;;;;;;5198973;28;20017;-76
2022/10/23 05:38:01;;;;;;;4.95;3.80;;;7.60;99.90;;;;;;5201876;28;20045;-76
2022/10/23 05:40:59;;;;;;;4.82;3.80;;;7.70;99.90;;;;;;5201987;28;20040;-76
2022/10/23 05:43:53;;;;;;;5.78;4.13;;;7.70;99.90;;;;;;5204849;28;20047;-76
2022/10/23 05:46:47;;;;;;;7.55;5.53;;;7.70;99.90;;;;;;5202860;28;20048;-76
2022/10/23 05:49:41;;;;;;;8.55;5.20;;;7.80;99.90;;;;;;5200813;28;20029;-74
2022/10/23 05:52:32;;;;;;;10.40;5.50;;;7.80;99.90;;;;;;5187628;28;20037;-76
2022/10/23 05:55:31;;;;;;;7.53;4.60;;;7.90;99.90;;;;;;5201641;28;20562;-76
2022/10/23 05:58:26;;;;;;;9.50;4.40;;;8.00;99.90;;;;;;5203507;28;20033;-76
2022/10/23 06:01:17;;;;;;;8.30;5.32;;;8.10;99.90;;;;;;5206423;28;20518;-76
2022/10/23 06:04:09;;;;;;;7.45;5.60;;;8.20;99.90;;;;;;5206653;28;20025;-75
2022/10/23 06:07:01;;;;;;;5.85;4.50;;;8.40;99.90;;;;;;5198448;28;20054;-76
2022/10/23 06:09:53;;;;;;;8.80;6.07;;;8.40;99.90;;;;;;5179361;28;20022;-76
2022/10/23 06:12:44;;;;;;;9.60;6.57;;;8.50;99.90;;;;;;5194289;28;20572;-76
2022/10/23 06:15:36;;;;;;;8.07;6.38;;;8.70;99.90;;;;;;5163153;28;20033;-77
2022/10/23 06:18:29;;;;;;;7.32;5.07;;;8.80;99.90;;;;;;5201912;28;20037;-76
2022/10/23 06:21:21;;;;;;;5.65;4.60;;;8.90;99.90;;;;;;5201396;28;20044;-77
2022/10/23 06:24:12;;;;;;;7.75;5.47;;;9.10;99.90;;;;;;5196399;28;20365;-77
2022/10/23 06:27:04;;;;;;;6.57;5.22;;;9.30;99.90;;;;;;5196411;28;20099;-76
2022/10/23 06:29:55;;;;;;;7.95;5.13;;;9.50;99.90;;;;;;5195828;28;20029;-77
2022/10/23 06:32:47;;;;;;;6.32;5.55;;;9.70;99.90;;;;;;5197058;28;20379;-76
2022/10/23 06:35:38;;;;;;;16.95;11.07;;;9.90;99.90;;;;;;5190569;28;20036;-77
2022/10/23 06:38:36;;;;;;;16.55;11.18;;;10.10;99.90;;;;;;5188125;28;20030;-76
2022/10/23 06:41:29;;;;;;;14.95;8.70;;;10.20;99.90;;;;;;5176216;28;20029;-76
2022/10/23 06:44:24;;;;;;;17.40;10.95;;;10.30;99.90;;;;;;5188471;28;20595;-76
2022/10/23 06:47:22;;;;;;;13.43;8.57;;;10.30;99.90;;;;;;5191568;28;20048;-76
2022/10/23 06:50:18;;;;;;;10.80;7.05;;;10.40;99.90;;;;;;5180486;28;20058;-77
2022/10/23 06:53:15;;;;;;;7.78;6.50;;;10.50;99.90;;;;;;5183709;28;20032;-77
2022/10/23 06:56:07;;;;;;;7.95;5.65;;;10.80;99.90;;;;;;5196207;28;20033;-76
2022/10/23 06:59:01;;;;;;;5.32;4.50;;;11.10;99.90;;;;;;5189800;28;20030;-76
2022/10/23 07:01:55;;;;;;;5.40;4.03;;;11.10;99.90;;;;;;5171844;28;20045;-76
2022/10/23 07:04:47;;;;;;;5.82;4.40;;;11.10;99.90;;;;;;5179277;28;20051;-77
2022/10/23 07:07:38;;;;;;;4.60;4.18;;;11.40;99.90;;;;;;5178944;28;20049;-77
2022/10/23 07:10:33;;;;;;;4.43;3.65;;;11.70;99.90;;;;;;5179721;28;20038;-76
2022/10/23 07:13:24;;;;;;;3.67;3.10;;;11.80;99.90;;;;;;5194738;28;20030;-76
2022/10/23 07:16:25;;;;;;;4.22;3.47;;;11.90;99.90;;;;;;5199924;28;20033;-77
2022/10/23 07:19:17;;;;;;;6.32;4.00;;;12.20;99.90;;;;;;5184248;28;20036;-77
2022/10/23 07:22:08;;;;;;;4.35;3.92;;;12.00;99.90;;;;;;5203155;28;20034;-77
2022/10/23 07:25:02;;;;;;;4.50;3.78;;;12.20;99.90;;;;;;5192561;28;20029;-76
2022/10/23 07:27:56;;;;;;;3.58;3.22;;;12.50;99.90;;;;;;5202636;28;20030;-76
2022/10/23 07:30:58;;;;;;;3.40;3.10;;;12.70;99.90;;;;;;5186336;28;20025;-77
2022/10/23 07:33:52;;;;;;;3.50;2.80;;;12.80;99.90;;;;;;5185315;28;20215;-76
2022/10/23 07:36:44;;;;;;;4.18;3.78;;;13.30;99.90;;;;;;5199960;28;20568;-76
2022/10/23 07:39:35;;;;;;;4.97;3.45;;;13.60;99.90;;;;;;5192685;28;20029;-76
2022/10/23 07:42:30;;;;;;;7.57;3.85;;;13.80;99.90;;;;;;5187347;28;20021;-77
2022/10/23 07:45:21;;;;;;;4.85;3.47;;;13.90;99.90;;;;;;5203696;28;20214;-77
2022/10/23 07:48:12;;;;;;;5.28;2.90;;;14.00;99.90;;;;;;5199574;28;20029;-75
2022/10/23 07:51:10;;;;;;;4.05;2.85;;;14.20;99.90;;;;;;5196817;28;20033;-77
2022/10/23 07:54:01;;;;;;;3.65;2.95;;;14.40;99.90;;;;;;5183298;28;20024;-75
2022/10/23 07:56:53;;;;;;;3.97;3.28;;;14.30;99.90;;;;;;5187348;28;20026;-76
2022/10/23 07:59:53;;;;;;;4.10;2.83;;;14.60;99.90;;;;;;5195020;28;20029;-77
2022/10/23 08:02:44;;;;;;;3.55;2.92;;;15.10;99.90;;;;;;5183142;28;20033;-76
2022/10/23 08:05:37;;;;;;;4.72;2.70;;;15.40;99.90;;;;;;5191341;28;20054;-78
2022/10/23 08:08:29;;;;;;;2.90;2.70;;;15.50;99.90;;;;;;5172085;28;20033;-79
2022/10/23 08:11:29;;;;;;;4.03;2.63;;;15.20;99.90;;;;;;5198318;28;20033;-76
2022/10/23 08:14:21;;;;;;;3.65;2.60;;;15.10;99.90;;;;;;5184197;28;20032;-76
2022/10/23 08:17:15;;;;;;;4.03;3.17;;;15.10;99.90;;;;;;5198717;28;20017;-75
2022/10/23 08:20:07;;;;;;;3.53;2.80;;;15.50;99.90;;;;;;5188152;28;20021;-75
2022/10/23 08:23:00;;;;;;;3.03;2.55;;;15.90;99.90;;;;;;5184117;28;20029;-75
2022/10/23 08:26:00;;;;;;;4.15;2.80;;;16.10;99.90;;;;;;5199218;28;20072;-75
2022/10/23 08:28:52;;;;;;;3.75;3.10;;;16.60;99.90;;;;;;5195827;28;20037;-76
2022/10/23 08:31:46;;;;;;;3.05;2.70;;;16.80;90.70;;;;;;5196770;28;20029;-76
2022/10/23 08:34:40;;;;;;;5.32;3.25;;;16.90;32.10;;;;;;5173661;28;20369;-76
2022/10/23 08:37:32;;;;;;;4.40;3.10;;;17.00;1.00;;;;;;5202380;28;20445;-76
2022/10/23 08:40:24;;;;;;;5.35;2.92;;;17.30;35.80;;;;;;5197043;28;20105;-76
2022/10/23 08:43:38;;;;;;;5.03;3.42;;;17.40;1.00;;;;;;5175773;28;20033;-75
2022/10/23 08:46:34;;;;;;;4.22;3.30;;;17.40;1.00;;;;;;5189350;28;20041;-76
2022/10/23 08:49:38;;;;;;;4.13;3.30;;;17.30;1.00;;;;;;5193264;28;20559;-76
2022/10/23 08:52:51;;;;;;;5.22;2.88;;;17.40;48.50;;;;;;5194959;28;20333;-74
2022/10/23 08:55:45;;;;;;;4.20;3.40;;;17.40;1.00;;;;;;5176899;28;20040;-76
2022/10/23 08:58:49;;;;;;;3.92;3.13;;;17.50;1.00;;;;;;5157266;28;20033;-76
2022/10/23 09:01:45;;;;;;;4.53;3.00;;;17.70;1.00;;;;;;5180549;28;20076;-76
2022/10/23 09:04:37;;;;;;;3.67;2.53;;;17.90;2.20;;;;;;5190240;28;20049;-76
2022/10/23 09:07:37;;;;;;;5.07;2.80;;;18.30;1.00;;;;;;5202894;28;20041;-76
2022/10/23 09:10:41;;;;;;;7.95;3.80;;;18.40;1.00;;;;;;5188766;28;20020;-75
2022/10/23 09:13:48;;;;;;;4.38;3.35;;;18.30;1.00;;;;;;5203394;28;20017;-75
2022/10/23 09:16:48;;;;;;;5.10;3.67;;;18.40;1.00;;;;;;5200379;28;20056;-75
2022/10/23 09:19:44;;;;;;;4.63;3.38;;;18.10;1.00;;;;;;5197256;28;20040;-75
2022/10/23 09:22:35;;;;;;;3.72;2.80;;;18.30;1.00;;;;;;5197258;28;20036;-75
2022/10/23 09:25:30;;;;;;;2.97;2.55;;;18.10;1.00;;;;;;5201303;28;20025;-77
2022/10/23 09:28:29;;;;;;;3.25;2.92;;;17.80;1.00;;;;;;5202814;28;20032;-77
2022/10/23 09:31:21;;;;;;;4.45;3.50;;;18.30;25.40;;;;;;5218175;28;20041;-74
2022/10/23 09:34:22;;;;;;;3.72;3.22;;;18.50;1.00;;;;;;5201253;28;20336;-76
2022/10/23 09:37:29;;;;;;;3.90;3.42;;;18.50;1.00;;;;;;5205767;28;20031;-75
2022/10/23 09:40:44;;;;;;;4.03;3.35;;;18.60;1.00;;;;;;5194457;28;20247;-76
2022/10/23 09:43:35;;;;;;;3.80;3.45;;;18.60;1.00;;;;;;5187627;28;20067;-75
2022/10/23 09:46:42;;;;;;;3.60;3.28;;;19.20;1.00;;;;;;5204017;28;20036;-76
2022/10/23 09:49:34;;;;;;;4.15;3.65;;;19.80;1.00;;;;;;5202383;28;20040;-75
2022/10/23 09:52:36;;;;;;;3.83;3.38;;;19.70;1.00;;;;;;5187034;28;20497;-76
2022/10/23 09:55:28;;;;;;;3.80;3.50;;;19.40;1.00;;;;;;5196752;28;20052;-76
2022/10/23 09:58:31;;;;;;;5.25;3.67;;;19.30;1.00;;;;;;5202721;28;20033;-76
2022/10/23 10:01:31;;;;;;;4.28;3.60;;;20.30;1.00;;;;;;5205556;28;20780;-74
2022/10/23 10:04:35;;;;;;;3.95;3.55;;;21.20;1.00;;;;;;5195087;28;20033;-75
2022/10/23 10:07:29;;;;;;;4.03;3.63;;;21.40;99.90;;;;;;5200240;28;20037;-76
2022/10/23 10:10:21;;;;;;;3.92;3.47;;;21.30;99.90;;;;;;5198775;28;20036;-76
2022/10/23 10:13:31;;;;;;;3.78;3.28;;;21.90;1.00;;;;;;5200010;28;20030;-76
2022/10/23 10:16:31;;;;;;;3.83;3.47;;;21.70;1.00;;;;;;5197103;28;20025;-75
2022/10/23 10:19:41;;;;;;;4.03;3.55;;;21.40;1.00;;;;;;5202003;28;20039;-76
2022/10/23 10:23:01;;;;;;;3.50;3.20;;;21.80;1.00;;;;;;5196426;28;20064;-76
2022/10/23 10:26:01;;;;;;;3.45;3.15;;;22.00;1.00;;;;;;5198077;28;20036;-75
2022/10/23 10:29:17;;;;;;;3.55;3.25;;;22.10;99.90;;;;;;5198425;28;20226;-75
2022/10/23 10:32:44;;;;;;;4.50;3.15;;;22.80;99.90;;;;;;5195947;28;20025;-76
2022/10/23 10:35:41;;;;;;;4.15;3.05;;;23.30;99.90;;;;;;5200013;28;20029;-76
2022/10/23 10:38:50;;;;;;;6.05;3.30;;;21.70;1.00;;;;;;5198530;28;20025;-75
2022/10/23 10:41:45;;;;;;;3.95;3.65;;;22.80;1.00;;;;;;5196127;28;20030;-76
2022/10/23 10:44:42;;;;;;;;;;;21.10;1.00;;;;;;5185339;28;20017;-75
2022/10/23 10:47:50;;;;;;;5.85;3.10;;;20.30;99.90;;;;;;5201027;28;19927;-76
2022/10/23 10:50:50;;;;;;;3.72;3.28;;;21.70;99.90;;;;;;5205013;28;20414;-76
2022/10/23 10:54:03;;;;;;;3.70;3.40;;;22.30;99.90;;;;;;5200592;28;20025;-75
2022/10/23 10:56:57;;;;;;;3.33;3.03;;;22.70;1.00;;;;;;5202867;28;20029;-76
2022/10/23 10:59:52;;;;;;;4.10;3.75;;;22.90;1.00;;;;;;5202335;28;20063;-76
2022/10/23 11:02:59;;;;;;;3.40;3.10;;;23.50;99.90;;;;;;5191661;28;20375;-76
2022/10/23 11:05:53;;;;;;;3.78;3.45;;;23.50;1.00;;;;;;5191794;28;20152;-75
2022/10/23 11:08:45;;;;;;;3.50;2.85;;;23.30;1.00;;;;;;5188169;28;20025;-75
2022/10/23 11:11:42;;;;;;;5.55;4.53;;;24.10;1.00;;;;;;5200348;28;20056;-75
2022/10/23 11:14:34;;;;;;;3.45;3.15;;;24.80;1.00;;;;;;5190425;28;20021;-75
2022/10/23 11:17:28;;;;;;;3.70;3.40;;;25.10;99.90;;;;;;5201804;28;20029;-75
2022/10/23 11:20:27;;;;;;;3.17;2.87;;;24.60;1.00;;;;;;5202590;28;20487;-75
2022/10/23 11:23:34;;;;;;;3.80;3.13;;;25.20;56.70;;;;;;5191142;28;20043;-75
2022/10/23 11:27:09;;;;;;;3.08;2.78;;;26.30;18.10;;;;;;5202997;28;20021;-75
2022/10/23 11:30:22;;;;;;;2.75;2.55;;;25.80;1.00;;;;;;5188901;28;20029;-76
2022/10/23 11:33:38;;;;;;;3.47;2.90;;;26.30;99.90;;;;;;5201324;28;20025;-76
2022/10/23 11:36:55;;;;;;;2.85;2.60;;;25.90;1.00;;;;;;5205609;28;20621;-76
2022/10/23 11:40:07;;;;;;;2.45;2.25;;;26.20;1.00;;;;;;5199568;28;20314;-75
2022/10/23 11:42:58;;;;;;;2.80;2.60;;;25.80;99.90;;;;;;5203724;28;20033;-75
2022/10/23 11:45:52;;;;;;;3.25;2.95;;;25.20;1.00;;;;;;5202432;28;20028;-76
2022/10/23 11:48:44;;;;;;;2.60;2.40;;;25.40;1.00;;;;;;5203026;28;20033;-76
2022/10/23 11:51:40;;;;;;;3.08;2.78;;;24.90;1.00;;;;;;5203984;28;20024;-75
2022/10/23 11:54:31;;;;;;;3.00;2.80;;;23.70;99.90;;;;;;5201706;28;20128;-75
2022/10/23 11:57:23;;;;;;;2.75;2.55;;;24.30;99.90;;;;;;5199501;28;20025;-75
2022/10/23 12:00:22;;;;;;;2.60;2.30;;;23.80;1.00;;;;;;5203067;28;20027;-75
2022/10/23 12:03:21;;;;;;;3.38;3.08;;;23.30;99.90;;;;;;5201469;28;20368;-75
2022/10/23 12:06:23;;;;;;;3.35;3.13;;;23.10;99.90;;;;;;5190795;28;20411;-75
2022/10/23 12:09:26;;;;;;;2.97;2.78;;;22.30;1.00;;;;;;5200115;28;20052;-76
2022/10/23 12:12:41;;;;;;;3.40;3.10;;;21.90;99.90;;;;;;5203518;28;20029;-75
2022/10/23 12:15:35;;;;;;;4.47;3.50;;;21.60;99.90;;;;;;5185042;28;20026;-75
2022/10/23 12:18:27;;;;;;;3.35;3.05;;;21.30;99.90;;;;;;5185981;28;20030;-75
2022/10/23 12:21:21;;;;;;;2.63;2.42;;;21.90;1.00;;;;;;5201797;28;20516;-74
2022/10/23 12:24:38;;;;;;;4.60;2.60;;;22.10;1.00;;;;;;5190308;28;20025;-75
2022/10/23 12:27:49;;;;;;;3.58;3.15;;;22.30;1.00;;;;;;5189197;28;20358;-74
2022/10/23 12:30:57;;;;;;;3.30;3.00;;;21.50;1.00;;;;;;5202012;28;20013;-76
2022/10/23 12:34:09;;;;;;;3.65;2.70;;;20.80;16.60;;;;;;5186014;28;20031;-74
2022/10/23 12:37:36;;;;;;;4.13;2.85;;;20.90;1.00;;;;;;5178139;28;20029;-75
2022/10/23 12:40:31;;;;;;;3.72;2.65;;;20.80;1.00;;;;;;5199120;28;20351;-74
2022/10/23 12:43:32;;;;;;;3.25;2.95;;;20.40;99.90;;;;;;5198181;28;20037;-77
2022/10/23 12:46:38;;;;;;;3.38;3.08;;;19.90;1.00;;;;;;5189322;28;20045;-74
2022/10/23 12:49:34;;;;;;;3.15;2.60;;;19.80;1.00;;;;;;5202535;28;20483;-76
2022/10/23 12:52:28;;;;;;;3.28;2.95;;;19.40;1.00;;;;;;5199918;28;20060;-74
2022/10/23 12:55:19;;;;;;;3.25;2.95;;;19.40;1.00;;;;;;5199553;28;20029;-74
2022/10/23 12:58:22;;;;;;;3.70;3.30;;;19.70;1.00;;;;;;5199762;28;20051;-74
2022/10/23 13:01:23;;;;;;;4.57;3.92;;;20.30;1.00;;;;;;5197621;28;20457;-74
2022/10/23 13:04:38;;;;;;;3.55;3.00;;;20.60;1.00;;;;;;5190313;28;20191;-74
2022/10/23 13:07:34;;;;;;;3.70;3.40;;;19.70;1.00;;;;;;5197684;28;20037;-73
2022/10/23 13:10:25;;;;;;;7.15;3.70;;;19.70;1.00;;;;;;5201914;28;20061;-74
2022/10/23 13:13:24;;;;;;;4.10;3.22;;;19.10;1.00;;;;;;5206892;28;20555;-74
2022/10/23 13:16:21;;;;;;;3.35;3.05;;;19.00;1.00;;;;;;5206333;28;20524;-74
2022/10/23 13:19:24;;;;;;;5.55;4.60;;;19.00;1.00;;;;;;5217063;28;20040;-74
2022/10/23 13:22:20;;;;;;;3.30;2.97;;;19.00;1.00;;;;;;5201360;28;20035;-75
2022/10/23 13:25:23;;;;;;;7.50;3.10;;;18.90;1.00;;;;;;5187388;28;20041;-75
2022/10/23 13:28:28;;;;;;;6.30;5.15;;;19.20;1.00;;;;;;5199052;28;20033;-75
2022/10/23 13:31:24;;;;;;;3.90;3.22;;;19.90;1.00;;;;;;5203499;28;20046;-76
2022/10/23 13:34:36;;;;;;;7.05;3.65;;;20.30;1.00;;;;;;5185516;28;20027;-74
2022/10/23 13:37:31;;;;;;;3.13;2.88;;;21.50;99.90;;;;;;5202845;28;20033;-74
2022/10/23 13:40:26;;;;;;;3.50;3.20;;;22.10;1.00;;;;;;5202357;28;20017;-75
2022/10/23 13:43:28;;;;;;;3.50;3.20;;;22.40;1.00;;;;;;5182076;28;20017;-75
2022/10/23 13:46:21;;;;;;;3.10;2.80;;;22.80;1.00;;;;;;5199370;28;20501;-75
2022/10/23 13:49:16;;;;;;;2.65;2.45;;;23.60;1.00;;;;;;5188798;28;20028;-75
2022/10/23 13:52:12;;;;;;;3.30;3.00;;;24.20;1.00;;;;;;5205895;28;20021;-75
2022/10/23 13:55:27;;;;;;;3.15;2.85;;;23.60;1.00;;;;;;5202712;28;20026;-74
2022/10/23 13:58:22;;;;;;;3.83;3.20;;;21.80;45.00;;;;;;5210461;28;20029;-74
2022/10/23 14:01:20;;;;;;;3.15;2.85;;;21.80;99.90;;;;;;5188959;28;20025;-74
2022/10/23 14:04:16;;;;;;;3.45;3.15;;;22.70;96.20;;;;;;5188088;28;20020;-75
2022/10/23 14:07:07;;;;;;;3.83;3.53;;;23.30;1.00;;;;;;5215654;28;20033;-72
2022/10/23 14:10:00;;;;;;;3.50;2.92;;;22.40;1.00;;;;;;5189778;28;20039;-74
2022/10/23 14:12:53;;;;;;;3.67;3.05;;;22.40;99.90;;;;;;5205432;28;20044;-74
2022/10/23 14:15:52;;;;;;;3.30;3.05;;;22.00;1.00;;;;;;5194478;28;20026;-74
2022/10/23 14:18:47;;;;;;;5.38;4.32;;;21.50;99.90;;;;;;5196699;28;20032;-73
2022/10/23 14:21:38;;;;;;;4.95;4.45;;;19.20;1.00;;;;;;5193382;28;20464;-73
2022/10/23 14:24:30;;;;;;;6.97;4.20;;;18.10;38.10;;;;;;5193578;28;20326;-75
2022/10/23 14:27:21;;;;;;;4.72;4.30;;;17.50;99.90;;;;;;5205951;28;20037;-75
2022/10/23 14:30:13;;;;;;;5.40;4.85;;;16.90;99.90;;;;;;5189974;28;20218;-74
2022/10/23 14:33:08;;;;;;;6.38;5.10;;;16.70;99.90;;;;;;5207612;28;20318;-74
2022/10/23 14:36:02;;;;;;;6.83;5.67;;;16.70;99.90;;;;;;5204484;28;20055;-73
2022/10/23 14:38:55;;;;;;;7.90;6.50;;;16.70;99.90;;;;;;5179665;28;20259;-75
2022/10/23 14:41:47;;;;;;;6.82;6.13;;;16.60;99.90;;;;;;5197175;28;20033;-74
2022/10/23 14:44:38;;;;;;;7.20;5.85;;;16.30;99.90;;;;;;5203126;28;20029;-73
2022/10/23 14:47:30;;;;;;;6.75;5.95;;;16.10;99.90;;;;;;5198528;28;20041;-72
2022/10/23 14:50:24;;;;;;;6.88;5.85;;;16.00;99.90;;;;;;5187492;28;20022;-75
2022/10/23 14:53:15;;;;;;;8.85;6.95;;;15.60;99.90;;;;;;5200875;28;20025;-75
2022/10/23 14:56:09;;;;;;;7.85;6.63;;;15.40;99.90;;;;;;5197103;28;20025;-74
2022/10/23 14:59:03;;;;;;;10.40;7.40;;;15.10;99.90;;;;;;5199113;28;20250;-74
2022/10/23 15:01:55;;;;;;;10.73;7.88;;;14.90;99.90;;;;;;5199970;28;20033;-73
2022/10/23 15:04:49;;;;;;;7.95;6.57;;;14.80;99.90;;;;;;5188980;28;20057;-74
2022/10/23 15:07:40;;;;;;;12.35;7.18;;;14.70;99.90;;;;;;5182718;28;20046;-74
2022/10/23 15:10:39;;;;;;;11.07;7.88;;;14.70;99.90;;;;;;5198070;28;20064;-73
2022/10/23 15:13:30;;;;;;;12.80;9.35;;;14.50;99.90;;;;;;5197509;28;20033;-74
2022/10/23 15:16:22;;;;;;;11.02;8.52;;;14.30;99.90;;;;;;5196701;28;20052;-74
2022/10/23 15:19:16;;;;;;;10.73;8.05;;;14.10;99.90;;;;;;5200453;28;20021;-74
2022/10/23 15:22:07;;;;;;;16.60;11.23;;;13.90;99.90;;;;;;5199610;28;20618;-73
2022/10/23 15:25:00;;;;;;;13.73;9.55;;;13.70;99.90;;;;;;5192651;28;20033;-73
2022/10/23 15:27:51;;;;;;;12.40;9.52;;;13.60;99.90;;;;;;5194288;28;21454;-73
2022/10/23 15:30:48;;;;;;;15.60;9.77;;;13.60;99.90;;;;;;5195738;28;20029;-73